JST7Q YCFS-YSSY
Flight info
| Callsign | JST7Q |
|---|---|
| Flight time | 0h 49m |
| Altitude | 32000 |
| Route | BANDA J70 IGDAM/N0429F310 H652 BOREE |
| Aircraft | A320/M-SDE3FGHIRWY/LB1 |
Departure
| Time | 2026-04-21 01:42 |
|---|---|
| Airport | Coffs Harbour Airport (YCFS) |
Arrival
| Time | 2026-04-21 02:32 |
|---|---|
| Airport | Sydney Kingsford Smith International Airport (YSSY) |
| Time | Latitude | Longitude | Altitude | Speed | Heading |
|---|---|---|---|---|---|
| 2026-04-21 01:13 | -30.32311 | 153.11633 | 24 ft | 0 kts | 340° |
| 2026-04-21 01:17 | -30.32312 | 153.11633 | 24 ft | 0 kts | 340° |
| 2026-04-21 01:18 | -30.32312 | 153.11634 | 24 ft | 0 kts | 340° |
| 2026-04-21 01:26 | -30.32313 | 153.11634 | 22 ft | 0 kts | 340° |
| 2026-04-21 01:33 | -30.32315 | 153.11635 | 22 ft | 2 kts | 339° |
| 2026-04-21 01:33 | -30.32324 | 153.11649 | 22 ft | 2 kts | 278° |
| 2026-04-21 01:33 | -30.32324 | 153.11667 | 22 ft | 2 kts | 254° |
| 2026-04-21 01:33 | -30.32318 | 153.11685 | 25 ft | 2 kts | 241° |
| 2026-04-21 01:34 | -30.32311 | 153.11699 | 23 ft | 1 kts | 226° |
| 2026-04-21 01:34 | -30.32308 | 153.11702 | 24 ft | 0 kts | 221° |
| 2026-04-21 01:35 | -30.32308 | 153.11703 | 24 ft | 0 kts | 221° |
| 2026-04-21 01:39 | -30.32314 | 153.11697 | 24 ft | 3 kts | 221° |
| 2026-04-21 01:39 | -30.32337 | 153.11680 | 24 ft | 5 kts | 193° |
| 2026-04-21 01:39 | -30.32362 | 153.11696 | 25 ft | 5 kts | 152° |
| 2026-04-21 01:39 | -30.32384 | 153.11715 | 22 ft | 7 kts | 140° |
| 2026-04-21 01:40 | -30.32439 | 153.11782 | 23 ft | 10 kts | 127° |
| 2026-04-21 01:40 | -30.32468 | 153.11825 | 23 ft | 11 kts | 128° |
| 2026-04-21 01:40 | -30.32521 | 153.11896 | 23 ft | 13 kts | 132° |
| 2026-04-21 01:40 | -30.32597 | 153.11881 | 24 ft | 13 kts | 223° |
| 2026-04-21 01:41 | -30.32604 | 153.11874 | 23 ft | 0 kts | 221° |
| 2026-04-21 01:41 | -30.32606 | 153.11872 | 23 ft | 2 kts | 221° |
| 2026-04-21 01:41 | -30.32726 | 153.11754 | 23 ft | 56 kts | 220° |
| 2026-04-21 01:42 | -30.33172 | 153.11314 | 24 ft | 111 kts | 221° |
| 2026-04-21 01:42 | -30.33847 | 153.10654 | 263 ft | 130 kts | 217° |
| 2026-04-21 01:42 | -30.34537 | 153.09975 | 822 ft | 132 kts | 217° |
| 2026-04-21 01:42 | -30.35253 | 153.09264 | 1329 ft | 140 kts | 218° |
| 2026-04-21 01:43 | -30.35971 | 153.08508 | 1877 ft | 144 kts | 221° |
| 2026-04-21 01:43 | -30.36739 | 153.07628 | 2184 ft | 166 kts | 222° |
| 2026-04-21 01:43 | -30.37614 | 153.06617 | 2498 ft | 190 kts | 221° |
| 2026-04-21 01:43 | -30.38611 | 153.05464 | 2895 ft | 215 kts | 221° |
| 2026-04-21 01:44 | -30.39728 | 153.04171 | 3436 ft | 238 kts | 221° |
| 2026-04-21 01:44 | -30.40917 | 153.02789 | 4277 ft | 245 kts | 222° |
| 2026-04-21 01:44 | -30.42129 | 153.01375 | 5228 ft | 249 kts | 222° |
| 2026-04-21 01:44 | -30.43361 | 152.99940 | 6116 ft | 254 kts | 221° |
| 2026-04-21 01:45 | -30.44621 | 152.98477 | 6992 ft | 258 kts | 220° |
| 2026-04-21 01:45 | -30.45901 | 152.96996 | 7841 ft | 262 kts | 223° |
| 2026-04-21 01:45 | -30.47205 | 152.95488 | 8619 ft | 268 kts | 223° |
| 2026-04-21 01:45 | -30.48509 | 152.93977 | 9491 ft | 270 kts | 223° |
| 2026-04-21 01:46 | -30.49842 | 152.92434 | 10320 ft | 275 kts | 223° |
| 2026-04-21 01:46 | -30.51258 | 152.90797 | 10574 ft | 298 kts | 223° |
| 2026-04-21 01:46 | -30.52769 | 152.89047 | 10975 ft | 312 kts | 223° |
| 2026-04-21 01:46 | -30.54325 | 152.87243 | 11563 ft | 320 kts | 224° |
| 2026-04-21 01:47 | -30.55908 | 152.85403 | 12219 ft | 324 kts | 223° |
| 2026-04-21 01:47 | -30.57512 | 152.83534 | 12888 ft | 330 kts | 224° |
| 2026-04-21 01:47 | -30.59144 | 152.81633 | 13544 ft | 334 kts | 223° |
| 2026-04-21 01:47 | -30.60793 | 152.79712 | 14256 ft | 338 kts | 224° |
| 2026-04-21 01:48 | -30.62464 | 152.77762 | 14862 ft | 343 kts | 222° |
| 2026-04-21 01:48 | -30.64150 | 152.75796 | 15518 ft | 345 kts | 222° |
| 2026-04-21 01:48 | -30.65857 | 152.73808 | 16049 ft | 350 kts | 223° |
| 2026-04-21 01:48 | -30.67586 | 152.71792 | 16644 ft | 353 kts | 224° |
| 2026-04-21 01:49 | -30.69333 | 152.69756 | 17212 ft | 358 kts | 223° |
| 2026-04-21 01:49 | -30.71100 | 152.67700 | 17790 ft | 362 kts | 223° |
| 2026-04-21 01:49 | -30.72901 | 152.65605 | 18266 ft | 369 kts | 223° |
| 2026-04-21 01:49 | -30.74706 | 152.63498 | 18756 ft | 376 kts | 223° |
| 2026-04-21 01:50 | -30.76548 | 152.61330 | 19386 ft | 375 kts | 223° |
| 2026-04-21 01:50 | -30.78376 | 152.59175 | 20134 ft | 373 kts | 223° |
| 2026-04-21 01:50 | -30.80211 | 152.57029 | 20784 ft | 374 kts | 222° |
| 2026-04-21 01:50 | -30.82066 | 152.54890 | 21402 ft | 375 kts | 221° |
| 2026-04-21 01:51 | -30.83936 | 152.52762 | 21997 ft | 377 kts | 221° |
| 2026-04-21 01:51 | -30.85821 | 152.50626 | 22625 ft | 377 kts | 220° |
| 2026-04-21 01:51 | -30.87680 | 152.48519 | 23214 ft | 379 kts | 221° |
| 2026-04-21 01:51 | -30.89571 | 152.46374 | 23772 ft | 381 kts | 220° |
| 2026-04-21 01:52 | -30.91468 | 152.44213 | 24251 ft | 383 kts | 221° |
| 2026-04-21 01:52 | -30.95285 | 152.39852 | 25146 ft | 386 kts | 221° |
| 2026-04-21 01:52 | -30.97208 | 152.37650 | 25581 ft | 388 kts | 221° |
| 2026-04-21 01:53 | -30.99136 | 152.35437 | 26018 ft | 390 kts | 221° |
| 2026-04-21 01:53 | -31.01072 | 152.33210 | 26424 ft | 392 kts | 221° |
| 2026-04-21 01:53 | -31.03020 | 152.30972 | 26809 ft | 394 kts | 221° |
| 2026-04-21 01:53 | -31.04978 | 152.28723 | 27230 ft | 396 kts | 221° |
| 2026-04-21 01:54 | -31.06944 | 152.26464 | 27608 ft | 398 kts | 221° |
| 2026-04-21 01:54 | -31.08921 | 152.24191 | 27979 ft | 400 kts | 221° |
| 2026-04-21 01:54 | -31.10904 | 152.21911 | 28295 ft | 396 kts | 221° |
| 2026-04-21 01:54 | -31.12867 | 152.19649 | 28474 ft | 400 kts | 221° |
| 2026-04-21 01:55 | -31.14858 | 152.17361 | 28780 ft | 403 kts | 221° |
| 2026-04-21 01:55 | -31.16867 | 152.15051 | 29141 ft | 406 kts | 221° |
| 2026-04-21 01:55 | -31.18882 | 152.12729 | 29508 ft | 408 kts | 221° |
| 2026-04-21 01:55 | -31.20911 | 152.10388 | 29873 ft | 410 kts | 221° |
| 2026-04-21 01:56 | -31.22919 | 152.08065 | 30234 ft | 413 kts | 221° |
| 2026-04-21 01:56 | -31.24971 | 152.05696 | 30563 ft | 415 kts | 221° |
| 2026-04-21 01:56 | -31.27026 | 152.03316 | 30870 ft | 417 kts | 221° |
| 2026-04-21 01:56 | -31.29091 | 152.00926 | 31172 ft | 418 kts | 221° |
| 2026-04-21 01:57 | -31.31160 | 151.98533 | 31294 ft | 418 kts | 221° |
| 2026-04-21 01:57 | -31.35282 | 151.93753 | 31314 ft | 417 kts | 221° |
| 2026-04-21 01:58 | -31.39401 | 151.88976 | 31325 ft | 417 kts | 221° |
| 2026-04-21 01:58 | -31.43746 | 151.84532 | 31342 ft | 414 kts | 213° |
| 2026-04-21 01:59 | -31.48379 | 151.80518 | 31326 ft | 414 kts | 213° |
| 2026-04-21 01:59 | -31.53004 | 151.76511 | 31330 ft | 414 kts | 213° |
| 2026-04-21 02:00 | -31.57638 | 151.72496 | 31327 ft | 414 kts | 213° |
| 2026-04-21 02:00 | -31.62262 | 151.68477 | 31332 ft | 414 kts | 214° |
| 2026-04-21 02:01 | -31.66855 | 151.64466 | 31331 ft | 414 kts | 214° |
| 2026-04-21 02:01 | -31.71481 | 151.60419 | 31331 ft | 415 kts | 214° |
| 2026-04-21 02:02 | -31.76113 | 151.56372 | 31333 ft | 415 kts | 214° |
| 2026-04-21 02:02 | -31.80743 | 151.52331 | 31335 ft | 415 kts | 214° |
| 2026-04-21 02:03 | -31.85370 | 151.48285 | 31330 ft | 415 kts | 214° |
| 2026-04-21 02:03 | -31.90001 | 151.44229 | 31336 ft | 414 kts | 214° |
| 2026-04-21 02:04 | -31.94819 | 151.40674 | 31341 ft | 411 kts | 202° |
| 2026-04-21 02:04 | -32.00038 | 151.37937 | 31352 ft | 411 kts | 202° |
| 2026-04-21 02:05 | -32.05273 | 151.35209 | 31336 ft | 411 kts | 202° |
| 2026-04-21 02:05 | -32.08765 | 151.33382 | 31323 ft | 411 kts | 202° |
| 2026-04-21 02:06 | -32.10284 | 151.32585 | 31252 ft | 410 kts | 202° |
| 2026-04-21 02:06 | -32.15510 | 151.29847 | 31330 ft | 410 kts | 202° |
| 2026-04-21 02:06 | -32.18096 | 151.28493 | 31090 ft | 401 kts | 202° |
| 2026-04-21 02:07 | -32.20577 | 151.27188 | 30848 ft | 390 kts | 202° |
| 2026-04-21 02:07 | -32.23030 | 151.25896 | 30606 ft | 381 kts | 202° |
| 2026-04-21 02:07 | -32.25424 | 151.24633 | 30362 ft | 373 kts | 202° |
| 2026-04-21 02:07 | -32.27785 | 151.23386 | 30087 ft | 369 kts | 202° |
| 2026-04-21 02:08 | -32.30120 | 151.22154 | 29803 ft | 367 kts | 202° |
| 2026-04-21 02:08 | -32.32456 | 151.20926 | 29525 ft | 365 kts | 202° |
| 2026-04-21 02:08 | -32.34773 | 151.19709 | 29250 ft | 364 kts | 202° |
| 2026-04-21 02:08 | -32.37081 | 151.18494 | 28976 ft | 362 kts | 202° |
| 2026-04-21 02:09 | -32.39364 | 151.17291 | 28705 ft | 357 kts | 202° |
| 2026-04-21 02:09 | -32.41625 | 151.16101 | 28338 ft | 354 kts | 202° |
| 2026-04-21 02:09 | -32.43862 | 151.14920 | 27968 ft | 351 kts | 202° |
| 2026-04-21 02:09 | -32.46087 | 151.13743 | 27604 ft | 349 kts | 202° |
| 2026-04-21 02:10 | -32.48299 | 151.12577 | 27246 ft | 346 kts | 202° |
| 2026-04-21 02:10 | -32.50492 | 151.11421 | 26893 ft | 343 kts | 202° |
| 2026-04-21 02:10 | -32.52665 | 151.10268 | 26538 ft | 341 kts | 202° |
| 2026-04-21 02:10 | -32.54819 | 151.09124 | 26182 ft | 338 kts | 202° |
| 2026-04-21 02:11 | -32.56961 | 151.07985 | 25833 ft | 335 kts | 202° |
| 2026-04-21 02:11 | -32.59082 | 151.06857 | 25463 ft | 333 kts | 202° |
| 2026-04-21 02:11 | -32.61190 | 151.05739 | 25099 ft | 331 kts | 202° |
| 2026-04-21 02:11 | -32.63279 | 151.04630 | 24736 ft | 328 kts | 202° |
| 2026-04-21 02:12 | -32.65332 | 151.03538 | 24362 ft | 326 kts | 202° |
| 2026-04-21 02:12 | -32.67401 | 151.02436 | 23997 ft | 325 kts | 202° |
| 2026-04-21 02:12 | -32.69459 | 151.01342 | 23570 ft | 323 kts | 202° |
| 2026-04-21 02:12 | -32.71501 | 151.00256 | 23188 ft | 320 kts | 202° |
| 2026-04-21 02:13 | -32.73524 | 150.99183 | 22806 ft | 317 kts | 202° |
| 2026-04-21 02:13 | -32.75535 | 150.98116 | 22430 ft | 315 kts | 202° |
| 2026-04-21 02:13 | -32.77564 | 150.97185 | 22060 ft | 311 kts | 193° |
| 2026-04-21 02:13 | -32.79685 | 150.96767 | 21672 ft | 309 kts | 182° |
| 2026-04-21 02:14 | -32.81826 | 150.96905 | 21262 ft | 309 kts | 172° |
| 2026-04-21 02:14 | -32.83950 | 150.97296 | 20851 ft | 308 kts | 172° |
| 2026-04-21 02:14 | -32.86070 | 150.97679 | 20442 ft | 308 kts | 172° |
| 2026-04-21 02:14 | -32.88191 | 150.98056 | 20027 ft | 308 kts | 172° |
| 2026-04-21 02:15 | -32.90314 | 150.98429 | 19623 ft | 309 kts | 172° |
| 2026-04-21 02:15 | -32.92447 | 150.98803 | 19209 ft | 310 kts | 172° |
| 2026-04-21 02:15 | -32.94559 | 150.99176 | 18798 ft | 311 kts | 172° |
| 2026-04-21 02:15 | -32.96700 | 150.99555 | 18346 ft | 311 kts | 172° |
| 2026-04-21 02:16 | -32.98840 | 150.99936 | 17919 ft | 311 kts | 172° |
| 2026-04-21 02:16 | -33.00973 | 151.00319 | 17505 ft | 310 kts | 172° |
| 2026-04-21 02:16 | -33.03105 | 151.00703 | 17088 ft | 309 kts | 172° |
| 2026-04-21 02:16 | -33.05228 | 151.01086 | 16675 ft | 308 kts | 172° |
| 2026-04-21 02:17 | -33.07344 | 151.01469 | 16266 ft | 307 kts | 172° |
| 2026-04-21 02:17 | -33.09456 | 151.01849 | 15856 ft | 307 kts | 172° |
| 2026-04-21 02:17 | -33.11566 | 151.02225 | 15443 ft | 306 kts | 172° |
| 2026-04-21 02:17 | -33.13674 | 151.02600 | 15032 ft | 306 kts | 172° |
| 2026-04-21 02:18 | -33.15773 | 151.02975 | 14627 ft | 305 kts | 172° |
| 2026-04-21 02:18 | -33.17875 | 151.03349 | 14218 ft | 305 kts | 172° |
| 2026-04-21 02:18 | -33.19975 | 151.03722 | 13771 ft | 305 kts | 172° |
| 2026-04-21 02:18 | -33.22073 | 151.04098 | 13365 ft | 304 kts | 172° |
| 2026-04-21 02:19 | -33.24155 | 151.04476 | 12964 ft | 302 kts | 172° |
| 2026-04-21 02:19 | -33.26209 | 151.04858 | 12571 ft | 301 kts | 171° |
| 2026-04-21 02:19 | -33.27797 | 151.05165 | 12431 ft | 294 kts | 171° |
| 2026-04-21 02:19 | -33.29463 | 151.05491 | 12220 ft | 285 kts | 172° |
| 2026-04-21 02:20 | -33.31411 | 151.05871 | 11608 ft | 282 kts | 171° |
| 2026-04-21 02:20 | -33.33319 | 151.06240 | 11189 ft | 272 kts | 171° |
| 2026-04-21 02:20 | -33.35184 | 151.06599 | 10694 ft | 276 kts | 171° |
| 2026-04-21 02:20 | -33.37113 | 151.06967 | 10178 ft | 282 kts | 171° |
| 2026-04-21 02:21 | -33.39028 | 151.07334 | 9945 ft | 276 kts | 171° |
| 2026-04-21 02:21 | -33.40922 | 151.07696 | 9567 ft | 275 kts | 171° |
| 2026-04-21 02:21 | -33.42812 | 151.08057 | 9184 ft | 275 kts | 171° |
| 2026-04-21 02:21 | -33.44690 | 151.08419 | 8868 ft | 272 kts | 171° |
| 2026-04-21 02:22 | -33.46549 | 151.08778 | 8528 ft | 268 kts | 171° |
| 2026-04-21 02:22 | -33.48385 | 151.09132 | 7918 ft | 266 kts | 171° |
| 2026-04-21 02:22 | -33.50187 | 151.09478 | 7489 ft | 258 kts | 171° |
| 2026-04-21 02:22 | -33.51920 | 151.09809 | 7134 ft | 248 kts | 171° |
| 2026-04-21 02:23 | -33.53593 | 151.10128 | 6798 ft | 238 kts | 170° |
| 2026-04-21 02:23 | -33.55204 | 151.10427 | 6464 ft | 230 kts | 172° |
| 2026-04-21 02:23 | -33.56745 | 151.10609 | 6124 ft | 221 kts | 174° |
| 2026-04-21 02:23 | -33.58268 | 151.10772 | 5795 ft | 219 kts | 174° |
| 2026-04-21 02:24 | -33.59790 | 151.10938 | 5464 ft | 219 kts | 176° |
| 2026-04-21 02:24 | -33.61308 | 151.11108 | 5143 ft | 219 kts | 175° |
| 2026-04-21 02:24 | -33.62831 | 151.11283 | 4810 ft | 221 kts | 174° |
| 2026-04-21 02:24 | -33.64367 | 151.11454 | 4482 ft | 222 kts | 176° |
| 2026-04-21 02:25 | -33.65918 | 151.11498 | 4145 ft | 222 kts | 176° |
| 2026-04-21 02:25 | -33.67430 | 151.11733 | 3992 ft | 215 kts | 169° |
| 2026-04-21 02:25 | -33.68848 | 151.12077 | 3987 ft | 203 kts | 168° |
| 2026-04-21 02:25 | -33.70214 | 151.12429 | 3988 ft | 199 kts | 168° |
| 2026-04-21 02:26 | -33.71561 | 151.12777 | 3993 ft | 197 kts | 168° |
| 2026-04-21 02:26 | -33.72900 | 151.13122 | 3992 ft | 193 kts | 168° |
| 2026-04-21 02:26 | -33.74166 | 151.13449 | 3989 ft | 182 kts | 168° |
| 2026-04-21 02:26 | -33.75410 | 151.13770 | 3921 ft | 182 kts | 168° |
| 2026-04-21 02:27 | -33.76637 | 151.14087 | 3732 ft | 180 kts | 168° |
| 2026-04-21 02:27 | -33.77859 | 151.14403 | 3509 ft | 179 kts | 168° |
| 2026-04-21 02:27 | -33.79077 | 151.14718 | 3262 ft | 180 kts | 169° |
| 2026-04-21 02:27 | -33.80300 | 151.15034 | 3025 ft | 180 kts | 169° |
| 2026-04-21 02:28 | -33.81132 | 151.15249 | 2868 ft | 180 kts | 168° |
| 2026-04-21 02:28 | -33.82344 | 151.15563 | 2619 ft | 179 kts | 169° |
| 2026-04-21 02:28 | -33.83566 | 151.15879 | 2403 ft | 172 kts | 169° |
| 2026-04-21 02:28 | -33.84691 | 151.16171 | 2169 ft | 160 kts | 170° |
| 2026-04-21 02:29 | -33.85742 | 151.16443 | 1936 ft | 148 kts | 169° |
| 2026-04-21 02:29 | -33.86694 | 151.16689 | 1747 ft | 139 kts | 169° |
| 2026-04-21 02:29 | -33.87608 | 151.16926 | 1593 ft | 131 kts | 171° |
| 2026-04-21 02:29 | -33.88492 | 151.17155 | 1410 ft | 131 kts | 170° |
| 2026-04-21 02:30 | -33.89389 | 151.17386 | 1215 ft | 133 kts | 169° |
| 2026-04-21 02:30 | -33.90283 | 151.17619 | 1068 ft | 129 kts | 170° |
| 2026-04-21 02:30 | -33.91161 | 151.17847 | 867 ft | 130 kts | 168° |
| 2026-04-21 02:30 | -33.92048 | 151.18083 | 678 ft | 130 kts | 170° |
| 2026-04-21 02:31 | -33.92951 | 151.18322 | 422 ft | 138 kts | 170° |
| 2026-04-21 02:31 | -33.93851 | 151.18552 | 314 ft | 134 kts | 172° |
| 2026-04-21 02:31 | -33.94746 | 151.18783 | 140 ft | 129 kts | 171° |
| 2026-04-21 02:31 | -33.95619 | 151.19003 | 42 ft | 118 kts | 171° |
| 2026-04-21 02:32 | -33.96291 | 151.19173 | 28 ft | 65 kts | 168° |
| 2026-04-21 02:32 | -33.96501 | 151.19219 | 25 ft | 18 kts | 176° |
| 2026-04-21 02:32 | -33.96624 | 151.19202 | 26 ft | 18 kts | 199° |
| 2026-04-21 02:32 | -33.96709 | 151.19156 | 28 ft | 10 kts | 231° |
| 2026-04-21 02:33 | -33.96696 | 151.19082 | 30 ft | 10 kts | 326° |
| 2026-04-21 02:33 | -33.96622 | 151.19059 | 30 ft | 12 kts | 351° |
| 2026-04-21 02:33 | -33.96529 | 151.19041 | 30 ft | 15 kts | 351° |
| 2026-04-21 02:33 | -33.96423 | 151.19009 | 30 ft | 17 kts | 348° |
| 2026-04-21 02:34 | -33.96304 | 151.18976 | 30 ft | 18 kts | 348° |
| 2026-04-21 02:34 | -33.96172 | 151.18942 | 30 ft | 21 kts | 348° |
| 2026-04-21 02:34 | -33.96025 | 151.18904 | 30 ft | 23 kts | 348° |
| 2026-04-21 02:34 | -33.95864 | 151.18862 | 30 ft | 25 kts | 348° |
| 2026-04-21 02:35 | -33.95688 | 151.18816 | 30 ft | 27 kts | 347° |
| 2026-04-21 02:35 | -33.95496 | 151.18766 | 30 ft | 29 kts | 348° |
| 2026-04-21 02:35 | -33.95339 | 151.18725 | 30 ft | 20 kts | 348° |
| 2026-04-21 02:35 | -33.95216 | 151.18655 | 30 ft | 17 kts | 318° |
| 2026-04-21 02:36 | -33.95129 | 151.18552 | 30 ft | 19 kts | 307° |
| 2026-04-21 02:36 | -33.95121 | 151.18398 | 30 ft | 20 kts | 258° |
| 2026-04-21 02:36 | -33.95153 | 151.18221 | 30 ft | 23 kts | 258° |
| 2026-04-21 02:36 | -33.95188 | 151.18028 | 30 ft | 22 kts | 263° |
| 2026-04-21 02:37 | -33.95109 | 151.17946 | 30 ft | 17 kts | 347° |
| 2026-04-21 02:37 | -33.94982 | 151.17914 | 30 ft | 20 kts | 348° |
| 2026-04-21 02:37 | -33.94836 | 151.17875 | 30 ft | 23 kts | 347° |
| 2026-04-21 02:37 | -33.94675 | 151.17833 | 30 ft | 25 kts | 348° |
| 2026-04-21 02:38 | -33.94500 | 151.17787 | 30 ft | 27 kts | 346° |
| 2026-04-21 02:38 | -33.94310 | 151.17731 | 30 ft | 29 kts | 345° |
| 2026-04-21 02:38 | -33.94137 | 151.17675 | 29 ft | 25 kts | 346° |
| 2026-04-21 02:38 | -33.93959 | 151.17626 | 29 ft | 27 kts | 347° |
| 2026-04-21 02:39 | -33.93870 | 151.17650 | 29 ft | 12 kts | 71° |
| 2026-04-21 02:39 | -33.93816 | 151.17711 | 30 ft | 12 kts | 353° |
| 2026-04-21 02:39 | -33.93728 | 151.17685 | 30 ft | 14 kts | 352° |
| 2026-04-21 02:39 | -33.93634 | 151.17634 | 30 ft | 15 kts | 331° |
| 2026-04-21 02:40 | -33.93571 | 151.17608 | 30 ft | 5 kts | 348° |
| 2026-04-21 02:40 | -33.93551 | 151.17622 | 30 ft | 4 kts | 79° |
| 2026-04-21 02:40 | -33.93555 | 151.17656 | 30 ft | 5 kts | 93° |
| 2026-04-21 02:40 | -33.93558 | 151.17685 | 30 ft | 3 kts | 101° |
| 2026-04-21 02:41 | -33.93559 | 151.17687 | 30 ft | 0 kts | 101° |